sensor_id;sensor_type;location;lat;lon;timestamp;temperature;humidity
44731;DHT22;30458;47.448;19.032;2022-09-09T00:09:18;21.80;99.90
44731;DHT22;30458;47.448;19.032;2022-09-09T00:19:27;21.30;99.80
44731;DHT22;30458;47.448;19.032;2022-09-09T00:29:36;21.50;99.90
44731;DHT22;30458;47.448;19.032;2022-09-09T00:39:47;21.20;99.90
44731;DHT22;30458;47.448;19.032;2022-09-09T01:10:41;21.10;99.90
44731;DHT22;30458;47.448;19.032;2022-09-09T01:20:55;21.20;99.90
44731;DHT22;30458;47.448;19.032;2022-09-09T01:31:03;21.30;99.90
44731;DHT22;30458;47.448;19.032;2022-09-09T01:41:11;21.20;99.90
44731;DHT22;30458;47.448;19.032;2022-09-09T01:51:20;20.80;99.90
44731;DHT22;30458;47.448;19.032;2022-09-09T02:01:39;20.70;99.90
44731;DHT22;30458;47.448;19.032;2022-09-09T02:11:47;20.90;99.90
44731;DHT22;30458;47.448;19.032;2022-09-09T02:21:59;20.90;99.90
44731;DHT22;30458;47.448;19.032;2022-09-09T02:32:05;20.80;99.90
44731;DHT22;30458;47.448;19.032;2022-09-09T02:42:10;20.60;99.90
44731;DHT22;30458;47.448;19.032;2022-09-09T02:52:15;20.30;99.90
44731;DHT22;30458;47.448;19.032;2022-09-09T03:02:21;20.20;99.90
44731;DHT22;30458;47.448;19.032;2022-09-09T03:12:27;20.20;99.90
44731;DHT22;30458;47.448;19.032;2022-09-09T03:22:33;20.20;99.90
44731;DHT22;30458;47.448;19.032;2022-09-09T03:32:35;20.40;99.90
44731;DHT22;30458;47.448;19.032;2022-09-09T03:42:36;20.60;99.90
44731;DHT22;30458;47.448;19.032;2022-09-09T03:52:41;20.60;99.90
44731;DHT22;30458;47.448;19.032;2022-09-09T04:02:54;20.60;99.90
44731;DHT22;30458;47.448;19.032;2022-09-09T04:12:58;20.20;99.90
44731;DHT22;30458;47.448;19.032;2022-09-09T04:23:01;20.20;99.90
44731;DHT22;30458;47.448;19.032;2022-09-09T04:33:03;20.20;99.90
44731;DHT22;30458;47.448;19.032;2022-09-09T04:43:08;20.20;99.90
44731;DHT22;30458;47.448;19.032;2022-09-09T04:53:09;20.00;99.90
44731;DHT22;30458;47.448;19.032;2022-09-09T05:03:14;20.00;99.90
44731;DHT22;30458;47.448;19.032;2022-09-09T05:13:15;20.00;99.90
44731;DHT22;30458;47.448;19.032;2022-09-09T05:23:16;20.00;99.90
44731;DHT22;30458;47.448;19.032;2022-09-09T05:33:18;20.40;99.90
44731;DHT22;30458;47.448;19.032;2022-09-09T05:43:19;21.00;99.90
44731;DHT22;30458;47.448;19.032;2022-09-09T05:53:28;22.20;99.60
44731;DHT22;30458;47.448;19.032;2022-09-09T06:03:39;22.50;98.50
44731;DHT22;30458;47.448;19.032;2022-09-09T06:13:42;22.70;97.60
44731;DHT22;30458;47.448;19.032;2022-09-09T06:23:44;23.00;96.90
44731;DHT22;30458;47.448;19.032;2022-09-09T06:33:47;22.80;97.00
44731;DHT22;30458;47.448;19.032;2022-09-09T06:43:50;24.20;96.60
44731;DHT22;30458;47.448;19.032;2022-09-09T06:53:53;25.20;95.00
44731;DHT22;30458;47.448;19.032;2022-09-09T07:03:59;24.80;95.50
44731;DHT22;30458;47.448;19.032;2022-09-09T07:14:07;25.30;94.90
44731;DHT22;30458;47.448;19.032;2022-09-09T07:24:08;24.90;94.90
44731;DHT22;30458;47.448;19.032;2022-09-09T07:34:11;26.90;94.10
44731;DHT22;30458;47.448;19.032;2022-09-09T07:44:17;29.70;90.60
44731;DHT22;30458;47.448;19.032;2022-09-09T07:54:24;31.40;86.50
44731;DHT22;30458;47.448;19.032;2022-09-09T08:04:27;31.30;84.30
44731;DHT22;30458;47.448;19.032;2022-09-09T08:14:31;31.40;84.00
44731;DHT22;30458;47.448;19.032;2022-09-09T08:24:35;30.90;81.10
44731;DHT22;30458;47.448;19.032;2022-09-09T08:34:36;30.90;80.70
44731;DHT22;30458;47.448;19.032;2022-09-09T08:44:48;30.60;76.20
44731;DHT22;30458;47.448;19.032;2022-09-09T08:54:52;30.20;77.70
44731;DHT22;30458;47.448;19.032;2022-09-09T09:05:15;29.90;74.80
44731;DHT22;30458;47.448;19.032;2022-09-09T09:15:24;29.50;80.00
44731;DHT22;30458;47.448;19.032;2022-09-09T09:25:38;28.20;82.30
44731;DHT22;30458;47.448;19.032;2022-09-09T09:35:44;28.00;83.70
44731;DHT22;30458;47.448;19.032;2022-09-09T09:45:48;27.50;82.60
44731;DHT22;30458;47.448;19.032;2022-09-09T09:56:01;27.70;83.10
44731;DHT22;30458;47.448;19.032;2022-09-09T10:06:05;27.70;81.30
44731;DHT22;30458;47.448;19.032;2022-09-09T10:26:55;26.80;81.50
44731;DHT22;30458;47.448;19.032;2022-09-09T10:37:01;26.60;78.40
44731;DHT22;30458;47.448;19.032;2022-09-09T10:47:15;26.50;74.20
44731;DHT22;30458;47.448;19.032;2022-09-09T10:57:34;26.40;74.70
44731;DHT22;30458;47.448;19.032;2022-09-09T11:40:32;26.30;71.50
44731;DHT22;30458;47.448;19.032;2022-09-09T11:50:37;26.30;73.80
44731;DHT22;30458;47.448;19.032;2022-09-09T12:10:57;26.50;74.80
44731;DHT22;30458;47.448;19.032;2022-09-09T12:21:32;26.50;74.00
44731;DHT22;30458;47.448;19.032;2022-09-09T12:41:52;26.70;79.10
44731;DHT22;30458;47.448;19.032;2022-09-09T12:51:57;26.60;77.30
44731;DHT22;30458;47.448;19.032;2022-09-09T13:01:59;26.60;78.30
44731;DHT22;30458;47.448;19.032;2022-09-09T13:12:03;26.40;79.00
44731;DHT22;30458;47.448;19.032;2022-09-09T13:22:14;26.20;78.80
44731;DHT22;30458;47.448;19.032;2022-09-09T13:32:18;26.40;78.00
44731;DHT22;30458;47.448;19.032;2022-09-09T13:42:28;26.50;77.30
44731;DHT22;30458;47.448;19.032;2022-09-09T13:52:30;26.40;72.80
44731;DHT22;30458;47.448;19.032;2022-09-09T14:02:31;26.50;69.10
44731;DHT22;30458;47.448;19.032;2022-09-09T14:12:32;26.70;74.80
44731;DHT22;30458;47.448;19.032;2022-09-09T14:22:36;26.60;74.30
44731;DHT22;30458;47.448;19.032;2022-09-09T14:32:37;26.50;75.40
44731;DHT22;30458;47.448;19.032;2022-09-09T14:42:40;26.50;74.10
44731;DHT22;30458;47.448;19.032;2022-09-09T14:52:41;26.50;73.80
44731;DHT22;30458;47.448;19.032;2022-09-09T15:02:42;26.40;73.60
44731;DHT22;30458;47.448;19.032;2022-09-09T15:12:48;26.40;74.80
44731;DHT22;30458;47.448;19.032;2022-09-09T15:22:50;26.50;74.20
44731;DHT22;30458;47.448;19.032;2022-09-09T15:32:53;26.50;75.40
44731;DHT22;30458;47.448;19.032;2022-09-09T15:42:54;26.50;74.60
44731;DHT22;30458;47.448;19.032;2022-09-09T15:52:54;26.30;74.60
44731;DHT22;30458;47.448;19.032;2022-09-09T16:02:58;26.30;76.00
44731;DHT22;30458;47.448;19.032;2022-09-09T16:13:01;26.20;74.70
44731;DHT22;30458;47.448;19.032;2022-09-09T16:23:05;26.10;76.40
44731;DHT22;30458;47.448;19.032;2022-09-09T16:33:06;26.00;76.30
44731;DHT22;30458;47.448;19.032;2022-09-09T16:43:10;25.90;77.70
44731;DHT22;30458;47.448;19.032;2022-09-09T16:53:12;25.80;78.90
44731;DHT22;30458;47.448;19.032;2022-09-09T17:03:16;25.70;79.00
44731;DHT22;30458;47.448;19.032;2022-09-09T17:13:17;25.60;80.40
44731;DHT22;30458;47.448;19.032;2022-09-09T17:23:22;25.40;81.40
44731;DHT22;30458;47.448;19.032;2022-09-09T17:33:23;25.20;81.20
44731;DHT22;30458;47.448;19.032;2022-09-09T17:43:26;25.00;80.90
44731;DHT22;30458;47.448;19.032;2022-09-09T17:53:27;24.70;82.30
44731;DHT22;30458;47.448;19.032;2022-09-09T18:03:28;24.40;84.10
44731;DHT22;30458;47.448;19.032;2022-09-09T18:13:32;24.20;85.80
44731;DHT22;30458;47.448;19.032;2022-09-09T18:23:38;24.10;86.00
44731;DHT22;30458;47.448;19.032;2022-09-09T18:33:46;24.00;86.30
44731;DHT22;30458;47.448;19.032;2022-09-09T18:43:56;23.90;86.00
44731;DHT22;30458;47.448;19.032;2022-09-09T18:53:59;23.90;87.20
44731;DHT22;30458;47.448;19.032;2022-09-09T19:04:02;23.70;88.20
44731;DHT22;30458;47.448;19.032;2022-09-09T19:14:05;23.60;89.00
44731;DHT22;30458;47.448;19.032;2022-09-09T19:24:20;23.30;90.40
44731;DHT22;30458;47.448;19.032;2022-09-09T19:34:24;23.20;90.20
44731;DHT22;30458;47.448;19.032;2022-09-09T19:44:27;23.20;90.10
44731;DHT22;30458;47.448;19.032;2022-09-09T19:54:27;23.20;90.30
44731;DHT22;30458;47.448;19.032;2022-09-09T20:04:33;23.20;90.70
44731;DHT22;30458;47.448;19.032;2022-09-09T20:14:34;23.20;91.30
44731;DHT22;30458;47.448;19.032;2022-09-09T20:24:35;23.20;91.80
44731;DHT22;30458;47.448;19.032;2022-09-09T20:34:36;23.20;92.30
44731;DHT22;30458;47.448;19.032;2022-09-09T20:44:37;23.10;94.00
44731;DHT22;30458;47.448;19.032;2022-09-09T20:54:40;23.10;96.10
44731;DHT22;30458;47.448;19.032;2022-09-09T21:04:43;23.00;97.60
44731;DHT22;30458;47.448;19.032;2022-09-09T21:14:50;23.10;98.40
44731;DHT22;30458;47.448;19.032;2022-09-09T21:24:51;23.20;98.90
44731;DHT22;30458;47.448;19.032;2022-09-09T21:34:54;23.30;99.30
44731;DHT22;30458;47.448;19.032;2022-09-09T21:44:56;23.30;99.90
44731;DHT22;30458;47.448;19.032;2022-09-09T21:55:00;23.30;99.90
44731;DHT22;30458;47.448;19.032;2022-09-09T22:05:04;23.10;99.90
44731;DHT22;30458;47.448;19.032;2022-09-09T22:15:06;23.10;99.90
44731;DHT22;30458;47.448;19.032;2022-09-09T22:25:13;23.00;99.90
44731;DHT22;30458;47.448;19.032;2022-09-09T22:35:15;22.60;99.90
44731;DHT22;30458;47.448;19.032;2022-09-09T22:45:16;22.40;99.90
44731;DHT22;30458;47.448;19.032;2022-09-09T22:55:17;22.40;99.90
44731;DHT22;30458;47.448;19.032;2022-09-09T23:05:24;22.40;99.90
44731;DHT22;30458;47.448;19.032;2022-09-09T23:15:27;22.40;99.90
44731;DHT22;30458;47.448;19.032;2022-09-09T23:25:28;21.90;99.90
44731;DHT22;30458;47.448;19.032;2022-09-09T23:35:29;21.60;99.90
44731;DHT22;30458;47.448;19.032;2022-09-09T23:45:35;21.60;99.90
44731;DHT22;30458;47.448;19.032;2022-09-09T23:55:35;21.50;99.90
